createdAt,value
2019-02-24T00:01:05.531Z,39.98
2019-02-24T00:03:32.995Z,41.45
2019-02-24T00:06:00.848Z,41.43
2019-02-24T00:08:28.362Z,42.20
2019-02-24T00:10:56.159Z,40.74
2019-02-24T00:13:23.613Z,41.96
2019-02-24T00:15:52.666Z,41.81
2019-02-24T00:18:20.335Z,41.59
2019-02-24T00:20:51.535Z,41.28
2019-02-24T00:23:19.003Z,42.31
2019-02-24T00:25:46.570Z,42.53
2019-02-24T00:28:15.286Z,41.96
2019-02-24T00:30:48.730Z,42.49
2019-02-24T00:33:16.311Z,42.51
2019-02-24T00:35:45.603Z,42.46
2019-02-24T00:38:13.120Z,42.17
2019-02-24T00:40:40.659Z,40.61
2019-02-24T00:43:08.211Z,41.37
2019-02-24T00:45:35.857Z,41.29
2019-02-24T00:48:03.408Z,42.00
2019-02-24T00:50:31.050Z,42.01
2019-02-24T00:52:59.518Z,40.89
2019-02-24T00:55:27.474Z,41.28
2019-02-24T00:57:55.012Z,38.40
2019-02-24T01:00:22.465Z,40.70
2019-02-24T01:02:49.988Z,40.82
2019-02-24T01:05:17.599Z,39.96
2019-02-24T01:07:45.143Z,39.88
2019-02-24T01:10:14.515Z,40.22
2019-02-24T01:12:49.714Z,40.17
2019-02-24T01:15:17.169Z,38.80
2019-02-24T01:17:45.909Z,38.00
2019-02-24T01:20:13.520Z,38.26
2019-02-24T01:22:41.282Z,39.17
2019-02-24T01:25:08.869Z,37.98
2019-02-24T01:27:36.332Z,37.25
2019-02-24T01:30:04.651Z,35.90
2019-02-24T01:32:32.124Z,35.69
2019-02-24T01:34:59.610Z,37.12
2019-02-24T01:37:27.110Z,36.30
2019-02-24T01:39:56.400Z,36.76
2019-02-24T01:42:23.915Z,37.94
2019-02-24T01:44:52.443Z,37.47
2019-02-24T01:47:24.258Z,37.71
2019-02-24T01:49:51.686Z,36.52
2019-02-24T01:52:19.149Z,37.31
2019-02-24T01:54:47.087Z,34.97
2019-02-24T01:57:14.775Z,36.56
2019-02-24T01:59:43.340Z,35.94
2019-02-24T02:02:10.813Z,34.64
2019-02-24T02:04:38.252Z,35.72
2019-02-24T02:07:05.757Z,35.94
2019-02-24T02:09:33.210Z,36.14
2019-02-24T02:12:00.732Z,37.42
2019-02-24T02:14:28.210Z,36.92
2019-02-24T02:16:55.632Z,36.10
2019-02-24T02:19:23.545Z,35.58
2019-02-24T02:21:51.772Z,36.46
2019-02-24T02:24:19.253Z,35.32
2019-02-24T02:26:46.736Z,36.21
2019-02-24T02:29:14.240Z,37.26
2019-02-24T02:31:41.802Z,36.29
2019-02-24T02:34:10.044Z,37.01
2019-02-24T02:36:37.544Z,35.80
2019-02-24T02:39:04.998Z,37.48
2019-02-24T02:41:33.451Z,36.75
2019-02-24T02:44:00.951Z,36.34
2019-02-24T02:46:32.267Z,35.51
2019-02-24T02:49:00.500Z,35.68
2019-02-24T02:51:28.010Z,36.86
2019-02-24T02:53:55.533Z,37.79
2019-02-24T02:56:23.007Z,37.63
2019-02-24T02:58:54.412Z,36.82
2019-02-24T03:01:20.305Z,37.40
2019-02-24T03:03:47.817Z,36.93
2019-02-24T03:06:21.014Z,36.47
2019-02-24T03:08:51.181Z,35.36
2019-02-24T03:11:18.721Z,36.53
2019-02-24T03:13:46.173Z,35.73
2019-02-24T03:16:13.785Z,36.20
2019-02-24T03:18:41.255Z,37.37
2019-02-24T03:21:08.697Z,37.21
2019-02-24T03:23:37.005Z,36.07
2019-02-24T03:26:04.532Z,36.24
2019-02-24T03:28:32.021Z,36.00
2019-02-24T03:30:59.757Z,37.00
2019-02-24T03:33:27.262Z,38.36
2019-02-24T03:35:55.392Z,37.54
2019-02-24T03:38:22.992Z,37.63
2019-02-24T03:40:50.433Z,39.43
2019-02-24T03:43:17.888Z,37.10
2019-02-24T03:45:45.359Z,35.35
2019-02-24T03:48:13.447Z,35.59
2019-02-24T03:50:40.884Z,36.23
2019-02-24T03:53:08.340Z,36.00
2019-02-24T03:55:35.823Z,35.46
2019-02-24T03:58:03.899Z,35.38
2019-02-24T04:00:31.443Z,36.84
2019-02-24T04:02:58.928Z,37.11
2019-02-24T04:05:26.412Z,35.18
2019-02-24T04:07:53.898Z,35.59
2019-02-24T04:10:21.375Z,35.69
2019-02-24T04:12:48.831Z,35.06
2019-02-24T04:15:16.300Z,34.97
2019-02-24T04:17:43.773Z,35.14
2019-02-24T04:20:11.282Z,35.85
2019-02-24T04:22:38.752Z,37.23
2019-02-24T04:25:06.217Z,36.61
2019-02-24T04:27:33.643Z,35.64
2019-02-24T04:30:05.158Z,36.52
2019-02-24T04:32:32.813Z,35.23
2019-02-24T04:35:00.317Z,35.51
2019-02-24T04:37:27.982Z,35.67
2019-02-24T04:39:56.428Z,35.55
2019-02-24T04:42:24.021Z,34.99
2019-02-24T04:44:51.644Z,34.73
2019-02-24T04:47:19.431Z,35.85
2019-02-24T04:49:46.872Z,36.89
2019-02-24T04:52:14.325Z,36.47
2019-02-24T04:54:41.819Z,36.71
2019-02-24T04:57:09.282Z,36.32
2019-02-24T04:59:37.277Z,37.23
2019-02-24T05:02:06.521Z,36.68
2019-02-24T05:04:34.945Z,38.76
2019-02-24T05:07:02.458Z,38.69
2019-02-24T05:09:34.396Z,38.45
2019-02-24T05:12:03.720Z,37.31
2019-02-24T05:14:32.345Z,38.78
2019-02-24T05:17:00.053Z,36.97
2019-02-24T05:19:27.629Z,37.60
2019-02-24T05:21:55.195Z,36.88
2019-02-24T05:24:22.648Z,35.76
2019-02-24T05:26:50.136Z,34.96
2019-02-24T05:29:17.573Z,34.43
2019-02-24T05:31:45.052Z,34.45
2019-02-24T05:34:12.504Z,35.54
2019-02-24T05:36:40.028Z,35.86
2019-02-24T05:39:08.530Z,36.18
2019-02-24T05:41:36.012Z,38.65
2019-02-24T05:44:03.489Z,36.53
2019-02-24T05:46:30.971Z,36.18
2019-02-24T05:48:59.049Z,39.19
2019-02-24T05:51:26.686Z,36.11
2019-02-24T05:53:54.188Z,36.75
2019-02-24T05:56:21.654Z,38.87
2019-02-24T05:58:49.772Z,38.21
2019-02-24T06:01:19.870Z,37.59
2019-02-24T06:03:46.235Z,36.79
2019-02-24T06:06:13.700Z,37.02
2019-02-24T06:08:41.213Z,37.42
2019-02-24T06:11:09.239Z,39.40
2019-02-24T06:13:37.139Z,38.23
2019-02-24T06:16:04.558Z,34.99
2019-02-24T06:18:32.039Z,33.92
2019-02-24T06:20:59.470Z,33.88
2019-02-24T06:23:26.921Z,35.42
2019-02-24T06:25:56.188Z,35.39
2019-02-24T06:28:23.641Z,34.19
2019-02-24T06:30:51.177Z,36.80
2019-02-24T06:33:18.673Z,36.67
2019-02-24T06:35:46.154Z,35.84
2019-02-24T06:38:13.644Z,36.94
2019-02-24T06:40:41.143Z,35.21
2019-02-24T06:43:08.606Z,36.69
2019-02-24T06:45:36.067Z,37.62
2019-02-24T06:48:03.718Z,36.80
2019-02-24T06:50:35.345Z,35.10
2019-02-24T06:52:59.436Z,35.48
2019-02-24T06:55:26.852Z,35.63
2019-02-24T06:57:54.377Z,35.77
2019-02-24T07:00:22.040Z,35.45
2019-02-24T07:02:49.595Z,34.56
2019-02-24T07:05:17.062Z,33.98
2019-02-24T07:07:44.503Z,36.15
2019-02-24T07:10:11.966Z,35.04
2019-02-24T07:12:39.476Z,35.04
2019-02-24T07:15:06.969Z,33.59
2019-02-24T07:17:34.449Z,35.01
2019-02-24T07:20:01.946Z,34.74
2019-02-24T07:22:29.987Z,35.08
2019-02-24T07:24:57.517Z,34.89
2019-02-24T07:27:24.952Z,33.69
2019-02-24T07:29:52.454Z,33.46
2019-02-24T07:32:21.147Z,33.58
2019-02-24T07:34:49.860Z,33.26
2019-02-24T07:37:17.502Z,32.84
2019-02-24T07:39:45.117Z,33.66
2019-02-24T07:42:12.594Z,32.83
2019-02-24T07:44:40.089Z,33.32
2019-02-24T07:47:07.597Z,32.27
2019-02-24T07:49:35.062Z,31.01
2019-02-24T07:52:02.552Z,30.97
2019-02-24T07:54:30.638Z,30.76
2019-02-24T07:56:58.141Z,30.55
2019-02-24T07:59:25.642Z,33.26
2019-02-24T08:01:54.992Z,31.83
2019-02-24T08:04:22.507Z,32.83
2019-02-24T08:06:49.963Z,32.40
2019-02-24T08:09:17.510Z,32.90
2019-02-24T08:11:45.043Z,32.22
2019-02-24T08:14:12.533Z,30.90
2019-02-24T08:16:39.959Z,30.74
2019-02-24T08:19:07.442Z,30.50
2019-02-24T08:21:34.891Z,30.60
2019-02-24T08:24:02.452Z,30.35
2019-02-24T08:26:29.988Z,29.34
2019-02-24T08:28:57.464Z,31.33
2019-02-24T08:31:26.019Z,32.05
2019-02-24T08:33:53.580Z,30.18
2019-02-24T08:36:21.255Z,31.17
2019-02-24T08:38:48.694Z,30.39
2019-02-24T08:41:16.162Z,27.04
2019-02-24T08:43:43.827Z,27.21
2019-02-24T08:46:11.294Z,26.38
2019-02-24T08:48:38.808Z,27.71
2019-02-24T08:51:06.249Z,27.18
2019-02-24T08:53:33.702Z,31.61
2019-02-24T08:56:01.882Z,33.58
2019-02-24T08:58:29.420Z,33.54
2019-02-24T09:00:56.908Z,33.88
2019-02-24T09:03:24.386Z,33.92
2019-02-24T09:05:52.001Z,33.39
2019-02-24T09:08:19.609Z,34.99
2019-02-24T09:10:47.606Z,34.39
2019-02-24T09:13:15.120Z,35.47
2019-02-24T09:15:42.903Z,37.73
2019-02-24T09:18:10.468Z,37.92
2019-02-24T09:20:37.931Z,36.29
2019-02-24T09:23:05.408Z,36.40
2019-02-24T09:25:33.138Z,35.61
2019-02-24T09:28:00.718Z,36.69
2019-02-24T09:30:28.170Z,37.17
2019-02-24T09:32:55.694Z,36.30
2019-02-24T09:35:23.691Z,36.69
2019-02-24T09:37:52.042Z,37.10
2019-02-24T09:40:19.532Z,35.72
2019-02-24T09:42:46.996Z,34.64
2019-02-24T09:45:14.508Z,33.72
2019-02-24T09:47:46.791Z,34.38
2019-02-24T09:50:09.620Z,33.33
2019-02-24T09:52:38.185Z,34.83
2019-02-24T09:55:05.719Z,33.39
2019-02-24T09:57:33.294Z,35.33
2019-02-24T10:00:00.757Z,36.07
2019-02-24T10:02:28.247Z,35.29
2019-02-24T10:04:56.784Z,33.86
2019-02-24T10:07:24.247Z,35.34
2019-02-24T10:09:51.909Z,36.04
2019-02-24T10:12:19.394Z,35.70
2019-02-24T10:14:46.961Z,37.00
2019-02-24T10:17:15.266Z,36.23
2019-02-24T10:19:43.702Z,37.11
2019-02-24T10:22:11.255Z,36.54
2019-02-24T10:24:38.815Z,36.10
2019-02-24T10:27:06.291Z,34.40
2019-02-24T10:29:35.048Z,35.27
2019-02-24T10:32:02.629Z,34.47
2019-02-24T10:34:30.872Z,32.91
2019-02-24T10:36:58.483Z,29.18
2019-02-24T10:39:29.730Z,30.48
2019-02-24T10:41:53.788Z,28.87
2019-02-24T10:44:21.000Z,30.96
2019-02-24T10:46:48.567Z,28.62
2019-02-24T10:49:16.916Z,31.30
2019-02-24T10:51:44.381Z,30.20
2019-02-24T10:54:11.915Z,28.58
2019-02-24T10:56:40.541Z,26.31
2019-02-24T10:59:08.202Z,22.66
2019-02-24T11:01:35.822Z,26.44
2019-02-24T11:04:04.273Z,22.61
2019-02-24T11:06:31.772Z,25.80
2019-02-24T11:09:00.386Z,27.08
2019-02-24T11:11:28.109Z,26.28
2019-02-24T11:13:55.609Z,22.13
2019-02-24T11:16:23.071Z,22.04
2019-02-24T11:18:50.540Z,23.56
2019-02-24T11:21:18.083Z,21.93
2019-02-24T11:23:45.679Z,21.00
2019-02-24T11:26:13.100Z,23.71
2019-02-24T11:28:41.008Z,20.86
2019-02-24T11:31:09.306Z,20.38
2019-02-24T11:33:38.842Z,23.48
2019-02-24T11:36:06.390Z,21.31
2019-02-24T11:38:33.956Z,21.34
2019-02-24T11:41:01.525Z,20.62
2019-02-24T11:43:28.979Z,23.11
2019-02-24T11:45:56.465Z,22.99
2019-02-24T11:48:24.054Z,21.93
2019-02-24T11:50:51.567Z,23.97
2019-02-24T11:53:19.129Z,24.30
2019-02-24T11:55:46.602Z,23.77
2019-02-24T11:58:14.200Z,22.62
2019-02-24T12:00:41.647Z,22.02
2019-02-24T12:03:09.138Z,19.46
2019-02-24T12:05:36.764Z,20.96
2019-02-24T12:08:04.372Z,23.57
2019-02-24T12:10:31.933Z,21.06
2019-02-24T12:12:59.366Z,19.41
2019-02-24T12:15:26.913Z,22.88
2019-02-24T12:17:54.460Z,24.83
2019-02-24T12:20:21.926Z,21.69
2019-02-24T12:22:49.404Z,19.78
2019-02-24T12:25:18.250Z,22.30
2019-02-24T12:27:45.748Z,22.56
2019-02-24T12:30:13.316Z,19.25
2019-02-24T12:32:40.838Z,19.49
2019-02-24T12:35:08.272Z,19.08
2019-02-24T12:37:36.977Z,19.75
2019-02-24T12:40:04.454Z,18.15
2019-02-24T12:42:32.007Z,22.06
2019-02-24T12:45:00.268Z,22.07
2019-02-24T12:47:27.661Z,22.33
2019-02-24T12:50:02.892Z,20.96
2019-02-24T12:52:22.655Z,18.44
2019-02-24T12:54:50.157Z,21.09
2019-02-24T12:57:17.962Z,21.74
2019-02-24T12:59:45.845Z,21.44
2019-02-24T13:02:13.322Z,18.00
2019-02-24T13:04:40.840Z,19.29
2019-02-24T13:07:08.350Z,18.09
2019-02-24T13:09:37.239Z,18.56
2019-02-24T13:12:04.827Z,17.41
2019-02-24T13:14:32.612Z,18.38
2019-02-24T13:17:00.332Z,18.77
2019-02-24T13:19:27.912Z,16.84
2019-02-24T13:21:55.448Z,20.18
2019-02-24T13:24:22.945Z,19.85
2019-02-24T13:26:51.396Z,16.93
2019-02-24T13:29:18.826Z,16.18
2019-02-24T13:31:46.352Z,16.86
2019-02-24T13:34:14.116Z,18.11
2019-02-24T13:36:41.614Z,16.66
2019-02-24T13:39:09.917Z,16.03
2019-02-24T13:41:37.527Z,18.14
2019-02-24T13:44:05.039Z,19.30
2019-02-24T13:46:32.581Z,19.58
2019-02-24T13:49:00.068Z,19.89
2019-02-24T13:51:28.577Z,17.93
2019-02-24T13:53:57.097Z,19.36
2019-02-24T13:56:25.921Z,20.95
2019-02-24T13:58:53.507Z,16.52
2019-02-24T14:01:21.028Z,18.12
2019-02-24T14:03:48.701Z,17.17
2019-02-24T14:06:17.877Z,15.79
2019-02-24T14:08:45.342Z,15.42
2019-02-24T14:11:14.300Z,17.64
2019-02-24T14:13:43.206Z,16.38
2019-02-24T14:16:11.726Z,19.06
2019-02-24T14:18:39.776Z,15.84
2019-02-24T14:21:09.089Z,15.51
2019-02-24T14:23:36.769Z,16.33
2019-02-24T14:26:04.537Z,14.76
2019-02-24T14:28:34.101Z,15.87
2019-02-24T14:31:04.094Z,16.12
2019-02-24T14:33:32.351Z,15.40
2019-02-24T14:36:00.609Z,14.88
2019-02-24T14:38:28.973Z,14.75
2019-02-24T14:40:56.529Z,16.64
2019-02-24T14:43:24.151Z,16.11
2019-02-24T14:45:51.646Z,14.60
2019-02-24T14:48:19.194Z,17.04
2019-02-24T14:50:46.746Z,15.85
2019-02-24T14:53:14.222Z,18.78
2019-02-24T14:55:41.824Z,17.75
2019-02-24T14:58:09.274Z,17.71
2019-02-24T15:00:36.849Z,14.82
2019-02-24T15:03:10.527Z,16.06
2019-02-24T15:05:41.231Z,16.17
2019-02-24T15:08:10.531Z,14.74
2019-02-24T15:10:39.100Z,15.07
2019-02-24T15:13:06.683Z,18.32
2019-02-24T15:15:36.592Z,16.57
2019-02-24T15:18:04.246Z,14.92
2019-02-24T15:20:32.589Z,16.53
2019-02-24T15:23:00.193Z,15.93
2019-02-24T15:25:28.643Z,16.94
2019-02-24T15:27:56.101Z,19.33
2019-02-24T15:30:40.666Z,19.12
2019-02-24T15:33:08.773Z,19.63
2019-02-24T15:35:36.646Z,18.72
2019-02-24T15:38:07.439Z,19.54
2019-02-24T15:40:36.087Z,20.02
2019-02-24T15:43:04.283Z,20.75
2019-02-24T15:45:32.060Z,21.70
2019-02-24T15:48:01.348Z,22.49
2019-02-24T15:50:28.834Z,22.41
2019-02-24T15:52:57.407Z,23.22
2019-02-24T15:55:25.269Z,23.12
2019-02-24T15:57:56.690Z,22.93
2019-02-24T16:00:24.139Z,23.72
2019-02-24T16:03:00.676Z,22.50
2019-02-24T16:05:19.227Z,23.35
2019-02-24T16:07:46.795Z,24.55
2019-02-24T16:10:18.229Z,22.87
2019-02-24T16:12:45.845Z,24.38
2019-02-24T16:15:15.912Z,24.29
2019-02-24T16:17:43.527Z,24.23
2019-02-24T16:20:12.591Z,24.25
2019-02-24T16:22:40.569Z,25.24
2019-02-24T16:25:08.133Z,25.29
2019-02-24T16:27:35.580Z,25.64
2019-02-24T16:30:03.086Z,26.27
2019-02-24T16:32:30.695Z,25.28
2019-02-24T16:34:58.266Z,25.75
2019-02-24T16:37:25.746Z,26.30
2019-02-24T16:39:53.267Z,26.75
2019-02-24T16:42:21.397Z,26.49
2019-02-24T16:44:49.067Z,27.21
2019-02-24T16:47:17.251Z,27.36
2019-02-24T16:49:44.777Z,27.60
2019-02-24T16:52:13.904Z,27.17
2019-02-24T16:54:42.189Z,27.48
2019-02-24T16:57:09.991Z,28.30
2019-02-24T16:59:38.757Z,28.15
2019-02-24T17:02:06.419Z,27.40
2019-02-24T17:04:34.298Z,28.35
2019-02-24T17:07:02.505Z,28.02
2019-02-24T17:09:29.946Z,28.16
2019-02-24T17:11:57.516Z,28.43
2019-02-24T17:14:25.056Z,29.07
2019-02-24T17:17:01.160Z,27.57
2019-02-24T17:19:20.686Z,28.07
2019-02-24T17:21:48.375Z,28.03
2019-02-24T17:24:15.890Z,28.18
2019-02-24T17:26:43.432Z,28.84
2019-02-24T17:29:10.889Z,28.95
2019-02-24T17:31:38.344Z,28.31
2019-02-24T17:34:05.802Z,28.80
2019-02-24T17:36:33.267Z,28.24
2019-02-24T17:39:00.775Z,28.42
2019-02-24T17:41:28.212Z,28.11
2019-02-24T17:43:55.663Z,27.90
2019-02-24T17:46:23.826Z,28.19
2019-02-24T17:48:51.353Z,27.70
2019-02-24T17:51:21.446Z,27.55
2019-02-24T17:53:46.306Z,27.55
2019-02-24T17:56:13.842Z,27.90
2019-02-24T17:58:41.329Z,27.58
2019-02-24T18:01:08.827Z,27.51
2019-02-24T18:03:39.345Z,27.68
2019-02-24T18:06:03.715Z,29.07
2019-02-24T18:08:31.162Z,29.56
2019-02-24T18:11:00.259Z,30.57
2019-02-24T18:13:27.728Z,30.63
2019-02-24T18:15:55.213Z,29.75
2019-02-24T18:18:22.667Z,29.28
2019-02-24T18:20:50.113Z,28.64
2019-02-24T18:23:17.564Z,28.13
2019-02-24T18:25:45.040Z,29.47
2019-02-24T18:28:13.129Z,29.60
2019-02-24T18:30:40.618Z,30.23
2019-02-24T18:33:08.701Z,29.69
2019-02-24T18:35:36.230Z,29.07
2019-02-24T18:38:03.727Z,28.37
2019-02-24T18:40:31.233Z,28.73
2019-02-24T18:43:00.504Z,29.18
2019-02-24T18:45:26.221Z,29.67
2019-02-24T18:47:54.674Z,29.84
2019-02-24T18:50:22.113Z,30.11
2019-02-24T18:52:49.578Z,30.21
2019-02-24T18:55:18.452Z,31.12
2019-02-24T18:57:46.143Z,31.31
2019-02-24T19:00:13.984Z,31.28
2019-02-24T19:02:41.455Z,31.31
2019-02-24T19:05:08.921Z,31.54
2019-02-24T19:07:36.367Z,32.04
2019-02-24T19:10:04.523Z,32.09
2019-02-24T19:12:32.879Z,31.96
2019-02-24T19:15:00.408Z,32.23
2019-02-24T19:17:27.962Z,32.40
2019-02-24T19:19:55.408Z,32.76
2019-02-24T19:22:22.882Z,33.11
2019-02-24T19:24:50.379Z,32.16
2019-02-24T19:27:18.927Z,32.01
2019-02-24T19:29:46.495Z,32.32
2019-02-24T19:32:14.823Z,32.41
2019-02-24T19:34:42.356Z,32.18
2019-02-24T19:37:09.847Z,32.02
2019-02-24T19:39:37.490Z,32.23
2019-02-24T19:42:04.920Z,32.56
2019-02-24T19:44:32.400Z,32.41
2019-02-24T19:46:59.903Z,31.71
2019-02-24T19:49:27.390Z,32.34
2019-02-24T19:51:54.856Z,32.22
2019-02-24T19:54:26.998Z,31.65
2019-02-24T19:56:54.595Z,31.89
2019-02-24T19:59:22.059Z,31.42
2019-02-24T20:01:49.580Z,33.92
2019-02-24T20:04:17.075Z,35.18
2019-02-24T20:06:45.389Z,34.25
2019-02-24T20:09:12.910Z,34.80
2019-02-24T20:11:40.395Z,36.10
2019-02-24T20:14:07.818Z,35.41
2019-02-24T20:16:35.269Z,36.00
2019-02-24T20:19:02.721Z,37.75
2019-02-24T20:21:30.167Z,37.59
2019-02-24T20:23:57.698Z,37.41
2019-02-24T20:26:25.222Z,37.87
2019-02-24T20:28:52.675Z,37.92
2019-02-24T20:31:20.143Z,38.81
2019-02-24T20:33:47.616Z,38.83
2019-02-24T20:36:16.011Z,38.23
2019-02-24T20:38:44.511Z,37.16
2019-02-24T20:41:12.238Z,39.37
2019-02-24T20:43:39.759Z,38.24
2019-02-24T20:46:07.248Z,36.91
2019-02-24T20:48:34.919Z,38.39
2019-02-24T20:51:02.400Z,38.91
2019-02-24T20:53:30.362Z,38.02
2019-02-24T20:55:57.857Z,35.75
2019-02-24T20:58:25.327Z,36.06
2019-02-24T21:00:52.777Z,35.42
2019-02-24T21:03:20.250Z,37.33
2019-02-24T21:05:47.696Z,37.77
2019-02-24T21:08:15.710Z,36.52
2019-02-24T21:10:43.155Z,35.83
2019-02-24T21:13:10.603Z,36.58
2019-02-24T21:15:38.157Z,38.31
2019-02-24T21:18:06.822Z,34.86
2019-02-24T21:20:34.418Z,36.38
2019-02-24T21:23:01.844Z,36.31
2019-02-24T21:25:29.380Z,34.21
2019-02-24T21:27:56.813Z,36.42
2019-02-24T21:30:24.289Z,35.67
2019-02-24T21:32:51.731Z,36.28
2019-02-24T21:35:19.176Z,35.94
2019-02-24T21:37:47.415Z,36.13
2019-02-24T21:40:15.738Z,36.05
2019-02-24T21:42:43.255Z,36.14
2019-02-24T21:45:11.577Z,34.78
2019-02-24T21:47:39.037Z,36.80
2019-02-24T21:50:06.859Z,35.09
2019-02-24T21:52:34.327Z,36.38
2019-02-24T21:55:01.817Z,35.75
2019-02-24T21:57:29.321Z,37.01
2019-02-24T21:59:56.891Z,35.84
2019-02-24T22:02:25.234Z,36.32
2019-02-24T22:04:52.752Z,35.55
2019-02-24T22:07:20.239Z,36.46
2019-02-24T22:09:48.031Z,36.04
2019-02-24T22:12:15.528Z,35.38
2019-02-24T22:14:44.072Z,36.04
2019-02-24T22:17:11.613Z,36.81
2019-02-24T22:19:39.057Z,36.54
2019-02-24T22:22:06.514Z,35.38
2019-02-24T22:24:34.013Z,34.44
2019-02-24T22:27:02.438Z,37.80
2019-02-24T22:29:30.052Z,36.72
2019-02-24T22:31:57.485Z,38.73
2019-02-24T22:34:24.992Z,35.01
2019-02-24T22:36:52.463Z,37.09
2019-02-24T22:39:19.976Z,35.40
2019-02-24T22:41:47.548Z,36.36
2019-02-24T22:44:15.099Z,36.07
2019-02-24T22:46:42.578Z,35.60
2019-02-24T22:49:10.027Z,35.28
2019-02-24T22:51:37.508Z,34.29
2019-02-24T22:54:05.346Z,34.73
2019-02-24T22:56:32.963Z,35.12
2019-02-24T22:59:00.420Z,36.65
2019-02-24T23:01:27.863Z,35.97
2019-02-24T23:03:55.297Z,35.54
2019-02-24T23:06:22.732Z,35.54
2019-02-24T23:08:50.189Z,35.92
2019-02-24T23:11:17.657Z,35.64
2019-02-24T23:13:45.093Z,35.22
2019-02-24T23:16:13.634Z,33.45
2019-02-24T23:18:41.166Z,33.94
2019-02-24T23:21:08.737Z,34.10
2019-02-24T23:23:36.179Z,36.66
2019-02-24T23:26:03.756Z,36.26
2019-02-24T23:28:31.190Z,36.19
2019-02-24T23:30:58.689Z,35.98
2019-02-24T23:33:26.165Z,36.14
2019-02-24T23:35:53.630Z,34.52
2019-02-24T23:38:21.102Z,33.04
2019-02-24T23:40:48.592Z,32.34
2019-02-24T23:43:16.020Z,32.73
2019-02-24T23:45:43.494Z,33.00
2019-02-24T23:48:10.953Z,32.32
2019-02-24T23:50:38.442Z,32.42
2019-02-24T23:53:06.445Z,32.08
2019-02-24T23:55:33.896Z,32.65
2019-02-24T23:58:01.340Z,32.67
